createdAt,value
2019-06-08T00:01:03.107Z,99.90
2019-06-08T00:03:30.092Z,99.90
2019-06-08T00:05:56.978Z,99.90
2019-06-08T00:08:24.153Z,99.90
2019-06-08T00:10:50.820Z,99.90
2019-06-08T00:13:17.548Z,99.90
2019-06-08T00:15:44.575Z,99.90
2019-06-08T00:18:11.535Z,99.90
2019-06-08T00:20:38.372Z,99.90
2019-06-08T00:23:06.912Z,99.90
2019-06-08T00:25:33.423Z,99.90
2019-06-08T00:27:59.979Z,99.90
2019-06-08T00:30:26.788Z,99.90
2019-06-08T00:32:53.696Z,99.90
2019-06-08T00:35:20.860Z,99.90
2019-06-08T00:37:47.588Z,99.90
2019-06-08T00:40:14.786Z,99.90
2019-06-08T00:42:41.558Z,99.90
2019-06-08T00:45:09.285Z,99.90
2019-06-08T00:47:47.564Z,99.90
2019-06-08T00:50:06.115Z,99.90
2019-06-08T00:52:32.776Z,99.90
2019-06-08T00:54:59.693Z,99.90
2019-06-08T00:57:26.533Z,99.90
2019-06-08T00:59:53.244Z,99.90
2019-06-08T01:02:20.376Z,99.90
2019-06-08T01:04:47.188Z,99.90
2019-06-08T01:07:13.998Z,99.90
2019-06-08T01:09:40.534Z,99.90
2019-06-08T01:12:07.052Z,99.90
2019-06-08T01:14:33.969Z,99.90
2019-06-08T01:17:00.877Z,99.90
2019-06-08T01:19:27.798Z,99.90
2019-06-08T01:21:54.528Z,99.90
2019-06-08T01:24:21.648Z,99.90
2019-06-08T01:26:48.370Z,99.90
2019-06-08T01:29:15.105Z,99.90
2019-06-08T01:31:41.838Z,99.90
2019-06-08T01:34:08.579Z,99.90
2019-06-08T01:36:35.221Z,99.90
2019-06-08T01:39:02.255Z,99.90
2019-06-08T01:41:29.656Z,99.90
2019-06-08T01:43:56.525Z,99.90
2019-06-08T01:46:23.814Z,99.90
2019-06-08T01:48:50.650Z,99.90
2019-06-08T01:51:17.623Z,99.90
2019-06-08T01:53:46.120Z,99.90
2019-06-08T01:56:12.799Z,99.90
2019-06-08T01:58:39.024Z,99.90
2019-06-08T02:01:05.488Z,99.90
2019-06-08T02:03:32.730Z,99.90
2019-06-08T02:05:59.087Z,99.90
2019-06-08T02:08:26.540Z,99.90
2019-06-08T02:10:52.958Z,99.90
2019-06-08T02:13:19.385Z,99.90
2019-06-08T02:15:45.773Z,99.90
2019-06-08T02:18:12.258Z,99.90
2019-06-08T02:20:39.348Z,99.90
2019-06-08T02:23:05.893Z,99.90
2019-06-08T02:25:33.413Z,99.90
2019-06-08T02:28:00.066Z,99.90
2019-06-08T02:30:28.367Z,99.90
2019-06-08T02:32:57.918Z,99.90
2019-06-08T02:35:24.267Z,99.90
2019-06-08T02:37:50.567Z,99.90
2019-06-08T02:40:17.138Z,99.90
2019-06-08T02:42:43.502Z,99.90
2019-06-08T02:45:10.477Z,99.90
2019-06-08T02:47:36.901Z,99.90
2019-06-08T02:50:06.912Z,99.90
2019-06-08T02:52:36.342Z,99.90
2019-06-08T02:55:04.716Z,99.90
2019-06-08T02:57:33.232Z,99.90
2019-06-08T03:00:00.561Z,99.90
2019-06-08T03:02:29.529Z,99.90
2019-06-08T03:04:56.399Z,99.90
2019-06-08T03:07:23.791Z,99.90
2019-06-08T03:09:53.850Z,99.90
2019-06-08T03:12:23.848Z,99.90
2019-06-08T03:14:52.936Z,99.90
2019-06-08T03:17:19.202Z,99.90
2019-06-08T03:19:45.561Z,99.90
2019-06-08T03:22:12.263Z,99.90
2019-06-08T03:24:38.848Z,99.90
2019-06-08T03:27:05.250Z,99.90
2019-06-08T03:29:32.538Z,99.90
2019-06-08T03:31:58.828Z,99.90
2019-06-08T03:34:25.093Z,99.90
2019-06-08T03:36:56.748Z,99.90
2019-06-08T03:39:20.032Z,99.90
2019-06-08T03:41:46.253Z,99.90
2019-06-08T03:44:12.719Z,99.90
2019-06-08T03:46:40.916Z,99.90
2019-06-08T03:49:07.394Z,99.90
2019-06-08T03:51:37.336Z,99.90
2019-06-08T03:54:02.275Z,99.90
2019-06-08T03:56:28.950Z,99.90
2019-06-08T03:58:55.226Z,99.90
2019-06-08T04:01:21.505Z,99.90
2019-06-08T04:03:48.005Z,99.90
2019-06-08T04:06:14.513Z,99.90
2019-06-08T04:08:44.280Z,99.90
2019-06-08T04:11:09.640Z,99.90
2019-06-08T04:13:37.519Z,99.90
2019-06-08T04:16:04.137Z,99.90
2019-06-08T04:18:32.294Z,99.90
2019-06-08T04:20:59.183Z,99.90
2019-06-08T04:23:25.690Z,99.90
2019-06-08T04:25:52.675Z,99.90
2019-06-08T04:28:19.430Z,99.90
2019-06-08T04:30:49.158Z,99.90
2019-06-08T04:33:14.707Z,99.90
2019-06-08T04:35:42.810Z,99.90
2019-06-08T04:38:09.939Z,99.90
2019-06-08T04:40:36.670Z,99.90
2019-06-08T04:43:04.017Z,99.90
2019-06-08T04:45:30.875Z,99.90
2019-06-08T04:47:57.728Z,99.90
2019-06-08T04:50:24.562Z,99.90
2019-06-08T04:52:51.172Z,99.90
2019-06-08T04:55:17.811Z,99.90
2019-06-08T04:57:47.392Z,99.90
2019-06-08T05:00:13.791Z,99.90
2019-06-08T05:02:42.196Z,99.90
2019-06-08T05:05:09.428Z,99.90
2019-06-08T05:07:36.446Z,99.90
2019-06-08T05:10:05.633Z,99.90
2019-06-08T05:12:32.370Z,99.90
2019-06-08T05:14:58.867Z,99.90
2019-06-08T05:17:25.690Z,99.90
2019-06-08T05:19:52.388Z,99.90
2019-06-08T05:22:19.233Z,99.90
2019-06-08T05:24:45.635Z,99.90
2019-06-08T05:27:12.529Z,99.90
2019-06-08T05:29:39.269Z,99.90
2019-06-08T05:32:06.181Z,99.90
2019-06-08T05:34:32.964Z,99.90
2019-06-08T05:36:59.513Z,99.90
2019-06-08T05:39:26.612Z,99.90
2019-06-08T05:41:53.255Z,99.90
2019-06-08T05:44:19.904Z,99.90
2019-06-08T05:46:47.719Z,99.90
2019-06-08T05:49:14.753Z,99.90
2019-06-08T05:51:41.769Z,99.90
2019-06-08T05:54:08.775Z,99.90
2019-06-08T05:56:35.246Z,99.90
2019-06-08T05:59:01.941Z,99.90
2019-06-08T06:01:28.659Z,99.90
2019-06-08T06:03:55.427Z,99.90
2019-06-08T06:06:22.091Z,99.90
2019-06-08T06:08:49.070Z,99.90
2019-06-08T06:11:15.877Z,99.90
2019-06-08T06:13:42.755Z,99.90
2019-06-08T06:16:09.582Z,99.90
2019-06-08T06:18:36.296Z,99.90
2019-06-08T06:21:10.986Z,99.90
2019-06-08T06:23:31.603Z,99.90
2019-06-08T06:25:58.674Z,99.90
2019-06-08T06:28:25.454Z,99.90
2019-06-08T06:30:52.258Z,99.90
2019-06-08T06:33:19.229Z,99.90
2019-06-08T06:35:49.961Z,99.90
2019-06-08T06:38:16.880Z,99.90
2019-06-08T06:40:43.977Z,99.90
2019-06-08T06:43:10.879Z,99.90
2019-06-08T06:45:37.512Z,99.90
2019-06-08T06:48:04.511Z,99.90
2019-06-08T06:50:31.184Z,99.90
2019-06-08T06:52:58.046Z,99.90
2019-06-08T06:55:25.451Z,99.90
2019-06-08T06:57:53.575Z,99.90
2019-06-08T07:00:28.950Z,99.90
2019-06-08T07:02:56.132Z,99.90
2019-06-08T07:05:23.121Z,99.90
2019-06-08T07:07:50.265Z,99.90
2019-06-08T07:10:17.184Z,99.90
2019-06-08T07:12:44.467Z,99.90
2019-06-08T07:15:14.954Z,99.90
2019-06-08T07:17:41.717Z,99.90
2019-06-08T07:20:08.674Z,99.90
2019-06-08T07:22:35.924Z,99.90
2019-06-08T07:25:04.299Z,99.90
2019-06-08T07:27:39.059Z,99.90
2019-06-08T07:30:08.419Z,99.90
2019-06-08T07:32:36.145Z,99.90
2019-06-08T07:35:05.836Z,99.90
2019-06-08T07:37:33.168Z,99.90
2019-06-08T07:40:00.812Z,99.90
2019-06-08T07:42:29.903Z,99.90
2019-06-08T07:45:00.361Z,99.90
2019-06-08T07:47:27.016Z,99.90
2019-06-08T07:49:57.813Z,99.90
2019-06-08T07:52:25.083Z,99.90
2019-06-08T07:54:53.047Z,99.90
2019-06-08T07:57:25.026Z,99.90
2019-06-08T07:59:56.342Z,99.90
2019-06-08T08:02:22.983Z,99.90
2019-06-08T08:04:50.557Z,99.90
2019-06-08T08:07:17.979Z,99.90
2019-06-08T08:09:45.465Z,99.90
2019-06-08T08:12:14.608Z,99.90
2019-06-08T08:14:43.884Z,99.90
2019-06-08T08:17:12.799Z,99.90
2019-06-08T08:19:41.923Z,99.90
2019-06-08T08:22:22.042Z,99.90
2019-06-08T08:24:43.108Z,99.90
2019-06-08T08:27:10.987Z,99.90
2019-06-08T08:29:38.509Z,99.90
2019-06-08T08:32:07.580Z,99.90
2019-06-08T08:34:34.765Z,99.90
2019-06-08T08:37:09.260Z,99.90
2019-06-08T08:39:37.694Z,99.90
2019-06-08T08:42:08.389Z,99.90
2019-06-08T08:44:37.797Z,99.90
2019-06-08T08:47:07.710Z,99.90
2019-06-08T08:49:38.024Z,99.90
2019-06-08T08:52:08.840Z,99.90
2019-06-08T08:54:37.740Z,99.90
2019-06-08T08:57:05.914Z,99.90
2019-06-08T08:59:38.817Z,99.90
2019-06-08T09:02:08.372Z,99.90
2019-06-08T09:04:37.868Z,99.90
2019-06-08T09:07:07.780Z,99.90
2019-06-08T09:09:34.089Z,99.90
2019-06-08T09:12:04.481Z,99.90
2019-06-08T09:14:32.090Z,99.90
2019-06-08T09:17:03.567Z,99.90
2019-06-08T09:19:31.301Z,99.90
2019-06-08T09:22:00.268Z,99.90
2019-06-08T09:24:32.342Z,99.90
2019-06-08T09:27:02.385Z,99.90
2019-06-08T09:29:29.013Z,99.90
2019-06-08T09:32:01.873Z,99.90
2019-06-08T09:34:30.514Z,99.90
2019-06-08T09:37:00.201Z,99.90
2019-06-08T09:39:29.092Z,99.90
2019-06-08T09:42:00.448Z,99.90
2019-06-08T09:44:28.105Z,99.90
2019-06-08T09:47:00.817Z,99.90
2019-06-08T09:49:28.113Z,99.90
2019-06-08T09:52:03.413Z,99.90
2019-06-08T09:54:35.220Z,99.90
2019-06-08T09:57:04.343Z,99.90
2019-06-08T09:59:35.284Z,99.90
2019-06-08T10:02:06.453Z,99.90
2019-06-08T10:04:33.581Z,99.90
2019-06-08T10:07:04.285Z,99.90
2019-06-08T10:09:37.980Z,99.90
2019-06-08T10:12:09.091Z,99.90
2019-06-08T10:14:38.047Z,99.90
2019-06-08T10:17:08.712Z,99.90
2019-06-08T10:19:35.642Z,99.90
2019-06-08T10:22:03.046Z,99.90
2019-06-08T10:24:30.376Z,99.90
2019-06-08T10:26:59.296Z,99.90
2019-06-08T10:29:30.454Z,99.90
2019-06-08T10:31:59.622Z,99.90
2019-06-08T10:34:29.669Z,99.90
2019-06-08T10:37:06.453Z,99.90
2019-06-08T10:39:30.477Z,99.90
2019-06-08T10:42:01.471Z,99.90
2019-06-08T10:44:33.501Z,99.90
2019-06-08T10:47:04.075Z,99.90
2019-06-08T10:49:33.229Z,99.90
2019-06-08T10:52:04.270Z,99.90
2019-06-08T10:54:32.849Z,99.90
2019-06-08T10:57:04.085Z,99.90
2019-06-08T10:59:30.157Z,99.90
2019-06-08T11:02:00.990Z,99.90
2019-06-08T11:04:30.135Z,99.90
2019-06-08T11:07:00.225Z,99.90
2019-06-08T11:09:28.651Z,99.90
2019-06-08T11:11:57.978Z,99.90
2019-06-08T11:14:24.868Z,99.90
2019-06-08T11:16:52.065Z,99.90
2019-06-08T11:19:20.942Z,99.90
2019-06-08T11:21:48.254Z,99.90
2019-06-08T11:24:23.554Z,99.90
2019-06-08T11:26:44.679Z,99.90
2019-06-08T11:29:13.813Z,99.90
2019-06-08T11:31:40.325Z,99.90
2019-06-08T11:34:10.214Z,99.90
2019-06-08T11:36:39.613Z,99.90
2019-06-08T11:39:09.099Z,99.90
2019-06-08T11:41:35.287Z,99.90
2019-06-08T11:44:03.839Z,99.90
2019-06-08T11:46:31.410Z,99.90
2019-06-08T11:49:01.093Z,99.90
2019-06-08T11:51:29.620Z,99.90
2019-06-08T11:53:55.286Z,99.90
2019-06-08T11:56:23.007Z,99.90
2019-06-08T11:58:50.111Z,99.90
2019-06-08T12:01:18.488Z,99.90
2019-06-08T12:03:45.455Z,99.90
2019-06-08T12:06:14.379Z,99.90
2019-06-08T12:08:41.263Z,99.90
2019-06-08T12:11:10.642Z,99.90
2019-06-08T12:13:36.882Z,99.90
2019-06-08T12:16:03.200Z,99.90
2019-06-08T12:18:29.483Z,99.90
2019-06-08T12:20:55.641Z,99.90
2019-06-08T12:23:22.006Z,99.90
2019-06-08T12:25:48.295Z,99.90
2019-06-08T12:28:14.775Z,99.90
2019-06-08T12:30:41.087Z,99.90
2019-06-08T12:33:09.518Z,99.90
2019-06-08T12:35:35.666Z,99.90
2019-06-08T12:38:02.211Z,99.90
2019-06-08T12:40:28.561Z,99.90
2019-06-08T12:42:54.914Z,99.90
2019-06-08T12:45:21.221Z,99.90
2019-06-08T12:47:47.890Z,99.90
2019-06-08T12:50:15.459Z,99.90
2019-06-08T12:52:43.296Z,99.90
2019-06-08T12:55:14.445Z,99.90
2019-06-08T12:57:38.265Z,99.90
2019-06-08T13:00:09.763Z,99.90
2019-06-08T13:02:38.257Z,99.90
2019-06-08T13:05:05.183Z,99.90
2019-06-08T13:07:31.508Z,99.90
2019-06-08T13:09:58.330Z,99.90
2019-06-08T13:12:24.725Z,99.90
2019-06-08T13:14:50.985Z,99.90
2019-06-08T13:17:19.386Z,99.90
2019-06-08T13:19:45.413Z,99.90
2019-06-08T13:22:12.760Z,99.90
2019-06-08T13:24:39.061Z,99.90
2019-06-08T13:27:05.330Z,99.90
2019-06-08T13:29:31.674Z,99.90
2019-06-08T13:31:58.670Z,99.90
2019-06-08T13:34:28.314Z,99.90
2019-06-08T13:36:54.220Z,99.90
2019-06-08T13:39:22.739Z,99.90
2019-06-08T13:41:51.829Z,99.90
2019-06-08T13:44:17.736Z,99.90
2019-06-08T13:46:44.166Z,99.90
2019-06-08T13:49:10.396Z,99.90
2019-06-08T13:51:38.426Z,99.90
2019-06-08T13:54:05.077Z,99.90
2019-06-08T13:56:31.430Z,99.90
2019-06-08T13:58:57.720Z,99.90
2019-06-08T14:01:24.078Z,99.90
2019-06-08T14:03:51.278Z,99.90
2019-06-08T14:06:19.017Z,99.90
2019-06-08T14:08:47.898Z,99.90
2019-06-08T14:11:14.590Z,99.90
2019-06-08T14:13:41.182Z,99.90
2019-06-08T14:16:11.158Z,99.90
2019-06-08T14:18:35.634Z,99.90
2019-06-08T14:21:01.895Z,99.90
2019-06-08T14:23:29.295Z,99.90
2019-06-08T14:25:57.775Z,99.90
2019-06-08T14:28:24.806Z,99.90
2019-06-08T14:30:52.147Z,99.90
2019-06-08T14:33:24.113Z,99.30
2019-06-08T14:35:46.682Z,99.90
2019-06-08T14:38:12.981Z,99.90
2019-06-08T14:40:39.413Z,99.90
2019-06-08T14:43:05.672Z,99.30
2019-06-08T14:45:32.072Z,99.90
2019-06-08T14:47:58.738Z,99.90
2019-06-08T14:50:25.217Z,99.90
2019-06-08T14:52:51.641Z,99.90
2019-06-08T14:55:20.054Z,99.90
2019-06-08T14:57:48.169Z,98.80
2019-06-08T15:00:19.429Z,98.90
2019-06-08T15:02:49.712Z,99.90
2019-06-08T15:05:14.615Z,99.40
2019-06-08T15:07:41.055Z,99.90
2019-06-08T15:10:09.988Z,99.90
2019-06-08T15:12:35.759Z,99.30
2019-06-08T15:15:03.303Z,99.90
2019-06-08T15:17:32.013Z,99.90
2019-06-08T15:19:58.532Z,98.10
2019-06-08T15:22:26.222Z,99.60
2019-06-08T15:24:53.129Z,99.10
2019-06-08T15:27:21.589Z,98.40
2019-06-08T15:29:47.951Z,97.80
2019-06-08T15:32:14.290Z,98.20
2019-06-08T15:34:40.705Z,98.30
2019-06-08T15:37:09.178Z,97.00
2019-06-08T15:39:35.395Z,98.70
2019-06-08T15:42:01.642Z,99.90
2019-06-08T15:44:29.060Z,99.90
2019-06-08T15:46:58.373Z,99.90
2019-06-08T15:49:24.204Z,99.90
2019-06-08T15:51:50.473Z,99.90
2019-06-08T15:54:16.810Z,98.80
2019-06-08T15:56:49.562Z,99.90
2019-06-08T15:59:11.001Z,98.20
2019-06-08T16:01:37.338Z,99.70
2019-06-08T16:04:04.240Z,99.10
2019-06-08T16:06:31.734Z,98.90
2019-06-08T16:08:58.345Z,99.90
2019-06-08T16:11:24.715Z,99.90
2019-06-08T16:13:50.967Z,98.80
2019-06-08T16:16:17.353Z,99.80
2019-06-08T16:18:43.581Z,99.90
2019-06-08T16:21:09.868Z,99.90
2019-06-08T16:23:36.192Z,99.90
2019-06-08T16:26:02.572Z,98.70
2019-06-08T16:28:29.935Z,97.70
2019-06-08T16:30:56.283Z,99.20
2019-06-08T16:33:22.552Z,98.10
2019-06-08T16:35:48.829Z,98.60
2019-06-08T16:38:15.167Z,98.00
2019-06-08T16:40:41.643Z,98.00
2019-06-08T16:43:07.925Z,98.30
2019-06-08T16:45:35.215Z,98.20
2019-06-08T16:48:01.760Z,97.70
2019-06-08T16:50:28.107Z,98.70
2019-06-08T16:52:54.662Z,99.90
2019-06-08T16:55:20.953Z,99.90
2019-06-08T16:57:47.500Z,99.80
2019-06-08T17:00:34.302Z,99.90
2019-06-08T17:02:42.538Z,99.90
2019-06-08T17:05:09.236Z,99.00
2019-06-08T17:07:35.568Z,98.10
2019-06-08T17:10:03.767Z,99.70
2019-06-08T17:12:30.712Z,99.90
2019-06-08T17:14:57.198Z,99.90
2019-06-08T17:17:23.630Z,99.90
2019-06-08T17:19:49.981Z,99.90
2019-06-08T17:22:16.339Z,99.90
2019-06-08T17:24:42.734Z,99.90
2019-06-08T17:27:25.280Z,99.90
2019-06-08T17:29:37.226Z,99.90
2019-06-08T17:32:03.768Z,99.90
2019-06-08T17:34:31.729Z,99.90
2019-06-08T17:36:58.647Z,99.90
2019-06-08T17:39:29.399Z,99.90
2019-06-08T17:41:56.113Z,99.90
2019-06-08T17:44:22.965Z,99.90
2019-06-08T17:46:50.352Z,99.90
2019-06-08T17:49:17.576Z,99.90
2019-06-08T17:51:44.494Z,99.90
2019-06-08T17:54:11.400Z,99.90
2019-06-08T17:56:39.193Z,99.90
2019-06-08T17:59:06.085Z,99.90
2019-06-08T18:01:34.035Z,99.90
2019-06-08T18:04:01.510Z,99.90
2019-06-08T18:06:28.664Z,99.90
2019-06-08T18:08:55.186Z,99.90
2019-06-08T18:11:21.823Z,99.90
2019-06-08T18:13:48.569Z,99.90
2019-06-08T18:16:18.083Z,99.90
2019-06-08T18:18:45.367Z,99.90
2019-06-08T18:21:12.191Z,99.90
2019-06-08T18:23:40.867Z,99.90
2019-06-08T18:26:07.852Z,99.90
2019-06-08T18:28:34.859Z,99.90
2019-06-08T18:31:01.876Z,99.90
2019-06-08T18:33:28.639Z,99.90
2019-06-08T18:35:57.569Z,99.90
2019-06-08T18:38:23.591Z,99.90
2019-06-08T18:40:50.593Z,99.90
2019-06-08T18:43:17.155Z,99.90
2019-06-08T18:45:47.923Z,99.90
2019-06-08T18:48:13.781Z,99.90
2019-06-08T18:50:41.008Z,99.90
2019-06-08T18:53:08.902Z,99.90
2019-06-08T18:55:38.735Z,99.90
2019-06-08T18:58:16.451Z,99.90
2019-06-08T19:00:40.621Z,99.90
2019-06-08T19:03:07.286Z,99.90
2019-06-08T19:05:35.075Z,99.90
2019-06-08T19:08:03.630Z,99.90
2019-06-08T19:10:32.517Z,99.90
2019-06-08T19:12:59.505Z,99.90
2019-06-08T19:15:38.839Z,99.90
2019-06-08T19:18:04.151Z,99.90
2019-06-08T19:20:31.245Z,99.90
2019-06-08T19:22:58.248Z,99.90
2019-06-08T19:25:27.527Z,99.90
2019-06-08T19:27:53.917Z,99.90
2019-06-08T19:30:24.206Z,99.90
2019-06-08T19:32:51.872Z,99.90
2019-06-08T19:35:18.452Z,99.90
2019-06-08T19:37:47.722Z,99.90
2019-06-08T19:40:15.057Z,99.90
2019-06-08T19:42:52.960Z,99.90
2019-06-08T19:45:11.175Z,99.90
2019-06-08T19:47:38.437Z,99.90
2019-06-08T19:50:07.655Z,99.90
2019-06-08T19:52:34.292Z,99.90
2019-06-08T19:55:01.104Z,99.90
2019-06-08T19:57:28.401Z,99.90
2019-06-08T19:59:57.595Z,99.90
2019-06-08T20:02:24.030Z,99.90
2019-06-08T20:04:50.432Z,99.90
2019-06-08T20:07:17.520Z,99.90
2019-06-08T20:09:45.233Z,99.90
2019-06-08T20:12:12.382Z,99.90
2019-06-08T20:14:38.628Z,99.90
2019-06-08T20:17:04.986Z,99.90
2019-06-08T20:19:31.369Z,99.90
2019-06-08T20:21:58.363Z,99.90
2019-06-08T20:24:25.036Z,99.90
2019-06-08T20:26:54.388Z,99.90
2019-06-08T20:29:20.184Z,99.90
2019-06-08T20:31:48.578Z,99.90
2019-06-08T20:34:14.672Z,99.90
2019-06-08T20:36:40.967Z,99.90
2019-06-08T20:39:07.492Z,99.90
2019-06-08T20:41:33.806Z,99.90
2019-06-08T20:44:00.131Z,99.90
2019-06-08T20:46:28.660Z,99.90
2019-06-08T20:48:54.501Z,99.90
2019-06-08T20:51:20.855Z,99.90
2019-06-08T20:53:49.345Z,99.90
2019-06-08T20:56:17.372Z,99.90
2019-06-08T20:58:43.769Z,99.90
2019-06-08T21:01:10.199Z,99.90
2019-06-08T21:03:36.468Z,99.90
2019-06-08T21:06:03.064Z,99.90
2019-06-08T21:08:29.672Z,99.90
2019-06-08T21:10:58.511Z,99.90
2019-06-08T21:13:24.094Z,99.90
2019-06-08T21:15:53.910Z,99.90
2019-06-08T21:18:19.265Z,99.90
2019-06-08T21:20:47.160Z,99.90
2019-06-08T21:23:13.526Z,99.90
2019-06-08T21:25:40.030Z,99.90
2019-06-08T21:28:07.763Z,99.90
2019-06-08T21:30:34.224Z,99.90
2019-06-08T21:33:00.971Z,99.90
2019-06-08T21:35:27.341Z,99.90
2019-06-08T21:37:54.725Z,99.90
2019-06-08T21:40:21.701Z,99.90
2019-06-08T21:42:51.431Z,99.90
2019-06-08T21:45:18.713Z,99.90
2019-06-08T21:47:44.373Z,99.90
2019-06-08T21:50:11.128Z,99.90
2019-06-08T21:52:37.374Z,99.90
2019-06-08T21:55:04.151Z,99.90
2019-06-08T21:57:30.471Z,99.90
2019-06-08T22:00:16.295Z,99.90
2019-06-08T22:02:24.857Z,99.90
2019-06-08T22:04:54.651Z,99.90
2019-06-08T22:07:19.282Z,99.90
2019-06-08T22:09:47.977Z,99.90
2019-06-08T22:12:14.339Z,99.90
2019-06-08T22:14:40.633Z,99.90
2019-06-08T22:17:07.921Z,99.90
2019-06-08T22:19:34.428Z,99.90
2019-06-08T22:22:02.025Z,99.90
2019-06-08T22:24:28.630Z,99.90
2019-06-08T22:26:55.284Z,99.90
2019-06-08T22:29:23.111Z,99.90
2019-06-08T22:31:49.287Z,99.90
2019-06-08T22:34:17.475Z,99.90
2019-06-08T22:36:43.618Z,99.90
2019-06-08T22:39:10.032Z,99.90
2019-06-08T22:41:37.317Z,99.90
2019-06-08T22:44:03.804Z,99.90
2019-06-08T22:46:30.251Z,99.90
2019-06-08T22:49:00.327Z,99.90
2019-06-08T22:51:24.703Z,99.90
2019-06-08T22:53:51.204Z,99.90
2019-06-08T22:56:18.341Z,99.90
2019-06-08T22:58:44.805Z,99.90
2019-06-08T23:01:11.695Z,99.90
2019-06-08T23:03:38.185Z,99.90
2019-06-08T23:06:06.399Z,99.90
2019-06-08T23:08:32.765Z,99.90
2019-06-08T23:11:00.891Z,99.90
2019-06-08T23:13:28.411Z,99.90
2019-06-08T23:15:57.006Z,99.90
2019-06-08T23:18:22.894Z,99.90
2019-06-08T23:20:49.092Z,99.90
2019-06-08T23:23:17.702Z,99.90
2019-06-08T23:25:43.521Z,99.90
2019-06-08T23:28:10.043Z,99.90
2019-06-08T23:30:38.307Z,99.90
2019-06-08T23:33:07.914Z,99.90
2019-06-08T23:35:56.798Z,99.90
2019-06-08T23:38:00.923Z,99.90
2019-06-08T23:40:27.355Z,99.90
2019-06-08T23:42:53.781Z,99.90
2019-06-08T23:45:20.125Z,99.90
2019-06-08T23:47:48.065Z,99.90
2019-06-08T23:50:17.598Z,99.90
2019-06-08T23:52:43.306Z,99.90
2019-06-08T23:55:11.904Z,99.90
2019-06-08T23:57:38.226Z,99.90
